Tiempo atmosférico en la estación meteorológica de Estepona, Málaga (15 m.)



Fecha
DESCASC
Temp. máxima en grados centígrados (hora)
DESCASC
Temp. mínima en grados centígrados (hora)
DESCASC
Temp. media en grados centígrados
DESCASC
Racha de viento máxima en m/sg (hora)
DESCASC
Velocidad máxima media en intervalos de 10 minutos(hora)
DESCASC
Precipitaciones diarias en mm
DESCASC
Precipitaciones de 00:00 a 06:00 en mm
DESCASC
Precipitaciones de 06:00 a 12:00 en mm
DESCASC
Precipitaciones de 12:00 a 18:00 en mm
DESCASC
Precipitaciones de 18:00 a 24:00 en mm
DESCASC
18-01-2018 17.8 (13:30) 12.1 (01:30) 14.9 -- (--) -- (--) 0 0 0 0 0
17-01-2018 18.7 (14:10) 8.5 (07:20) 13.6 7.78 (17:30) 5 (16:10) 0 0 0 0 0
16-01-2018 18.2 (14:20) 8.5 (07:10) 13.4 3.61 (17:40) 2.22 (17:00) 0 0 0 0 0
15-01-2018 16.5 (14:00) 6.2 (08:00) 11.3 -- (--) -- (--) 0 0 0 0 0
14-01-2018 13 (16:40) 7.8 (00:00) 10.4 9.17 (11:00) 5 (11:00) 1.4 0 0.2 1.2 0
13-01-2018 14.2 (13:40) 8.8 (00:00) 11.5 8.89 (16:50) 4.44 (17:00) 0.2 0 0 0.2 0
12-01-2018 16.8 (13:30) 7.7 (00:00) 12.2 5.28 (00:10) 2.5 (00:20) 0 0 0 0 0
11-01-2018 17.8 (13:20) 9.4 (00:00) 13.6 -- (--) -- (--) 0 0 0 0 0
10-01-2018 18.6 (14:30) 10.3 (00:00) 14.5 -- (--) -- (--) 14.4 14.4 0 0 0
09-01-2018 13.8 (14:10) 5.2 (00:00) 9.5 -- (--) -- (--) 3.8 0 0 1.8 2
08-01-2018 10.1 (15:50) 7 (00:00) 8.6 -- (--) -- (--) 14.4 0.6 12.4 1.4 0
07-01-2018 13.3 (14:20) 7.1 (00:00) 10.2 9.72 (13:40) 5.56 (13:40) 0 0 0 0 0
06-01-2018 15 (01:00) 8.9 (00:00) 11.9 22.22 (03:50) 9.44 (03:50) 12.8 4.2 8.6 0 0
05-01-2018 18.6 (12:50) 10 (00:00) 14.3 15.83 (06:10) 8.61 (06:10) 0 0 0 0 0
04-01-2018 20.8 (14:30) 10.5 (07:40) 15.6 8.06 (16:20) 3.06 (19:40) 0 0 0 0 0
03-01-2018 21.4 (13:20) 12 (00:00) 16.7 4.72 (02:30) 2.22 (17:30) 0 0 0 0 0
02-01-2018 19 (14:20) 8.6 (00:00) 13.8 5.28 (13:10) 3.06 (13:30) 0 0 0 0 0
01-01-2018 19.6 (14:20) 11.8 (00:00) 15.7 5.28 (00:40) 3.06 (10:30) 0 0 0 0 0
31-12-2017 19.6 (16:30) 11.1 (00:00) 15.4 13.89 (12:30) 6.94 (08:40) 0 0 0 0 0
30-12-2017 19.7 (14:00) 11 (00:00) 15.4 3.06 (03:20) 1.39 (00:50) 0 0 0 0 0
29-12-2017 21.5 (14:20) 13.5 (00:00) 17.5 15.56 (00:40) 7.22 (00:40) 0 0 0 0 0
28-12-2017 18.6 (12:30) 14.1 (00:00) 16.4 13.61 (23:59) 7.22 (11:40) 0.2 0 0 0.2 0
27-12-2017 18.2 (12:40) 13.6 (00:00) 15.9 19.44 (10:20) 8.06 (08:10) 2.8 0.4 2.4 0 0
26-12-2017 17.6 (12:40) 12 (00:00) 14.8 10.28 (18:10) 5.56 (18:40) 3.2 0.2 2.8 0.2 0
25-12-2017 17.1 (14:00) 12.5 (00:00) 14.8 8.61 (15:00) 4.17 (14:00) 1.4 0 0 0.2 1.2
24-12-2017 17.5 (14:10) 13.3 (00:00) 15.4 12.22 (12:30) 8.33 (11:40) 0 0 0 0 0

Gráficas

Temp. máximas Temp. mínimas Temp. medias Precipitaciones Rachas de viento máximas Velocidades máximas media en intervalos de 10 minutos

Datos horarios

Fecha y hora oficial Temperatura (ºC) Velocidad del viento (km/h) Dirección del viento Racha (km/h) Dirección de racha Precipitación (mm) Presión (hPa) Tendencia (hPa) Humedad (%)
2018-01-22 23:00:00 12.8 0 Calma 3 Sudeste 0 -- -- 82
2018-01-22 22:00:00 13.2 2 Sudeste 7 Oeste 0 -- -- 82
2018-01-22 21:00:00 13.7 2 Sudoeste 5 Noroeste 0 -- -- 80
2018-01-22 20:00:00 14.5 2 Oeste 8 Nordeste 0 -- -- 77
2018-01-22 19:00:00 15.6 4 Nordeste 12 Nordeste 0 -- -- 76
2018-01-22 18:00:00 16.9 6 Nordeste 12 Este 0 -- -- 72
2018-01-22 17:00:00 18.1 7 Este 11 Este 0 -- -- 67
2018-01-22 16:00:00 19.1 5 Sudoeste 14 Sur 0 -- -- 63
2018-01-22 15:00:00 20.4 3 Este 7 Este 0 -- -- 56
2018-01-22 14:00:00 20.3 3 Sudeste 8 Sudeste 0 -- -- 52
2018-01-22 13:00:00 20.7 3 Sudeste 8 Sudeste 0 -- -- 45
2018-01-22 12:00:00 18.6 3 Este 7 Sur 0 -- -- 51
2018-01-22 11:00:00 18.4 3 Sudeste 6 Sudeste 0 -- -- 51
2018-01-22 10:00:00 14.3 2 Sur 6 Nordeste 0 -- -- 64
2018-01-22 09:00:00 11.2 3 Nordeste 6 Sudeste 0 -- -- 70
2018-01-22 08:00:00 11.2 2 Nordeste 8 Oeste 0 -- -- 64
2018-01-22 07:00:00 12 2 Sudoeste 8 Noroeste 0 -- -- 59
2018-01-22 06:00:00 11.7 3 Norte 10 Nordeste 0 -- -- 63
2018-01-22 05:00:00 12 3 Sudoeste 8 Nordeste 0 -- -- 59
2018-01-22 04:00:00 13.1 3 Norte 13 Oeste 0 -- -- 59
2018-01-22 03:00:00 14.5 3 Oeste 20 Sudeste 0 -- -- 55
2018-01-22 02:00:00 14 4 Norte 15 Nordeste 0 -- -- 56
2018-01-22 01:00:00 14 4 Oeste 11 Oeste 0 -- -- 58
2018-01-22 00:00:00 14.8 3 Norte 9 Norte 0 -- -- 54
2018-01-21 23:00:00 14.6 5 Noroeste 12 Este 0 -- -- 62
2018-01-21 22:00:00 13.9 3 Sudoeste 8 Sudoeste 0 -- -- 68
2018-01-21 21:00:00 14.6 3 Noroeste 8 Nordeste 0 -- -- 65
2018-01-21 20:00:00 15.4 4 Nordeste 12 Nordeste 0 -- -- 63
2018-01-21 19:00:00 17.3 5 Nordeste 9 Este 0 -- -- 59
2018-01-21 18:00:00 20.4 3 Sudoeste 26 Oeste 0 -- -- 47
2018-01-21 17:00:00 21.4 9 Oeste 17 Oeste 0 -- -- 41
2018-01-21 16:00:00 19.4 4 Este 11 Este 0 -- -- 45
2018-01-21 15:00:00 20.7 3 Este 9 Este 0 -- -- 32
2018-01-21 14:00:00 21.1 5 Este 12 Este 0 -- -- 35
2018-01-21 13:00:00 20.4 4 Sudeste 8 Sudeste 0 -- -- 28
2018-01-21 12:00:00 19.6 4 Este 10 Este 0 -- -- 39
2018-01-21 11:00:00 18.7 5 Este 11 Este 0 -- -- 44
2018-01-21 10:00:00 14.6 2 Oeste 10 Este 0 -- -- 48
2018-01-21 09:00:00 11.8 3 Oeste 9 Nordeste 0 -- -- 52
2018-01-21 08:00:00 11.6 3 Norte 12 Nordeste 0 -- -- 48
2018-01-21 07:00:00 12.3 3 Oeste 11 Norte 0 -- -- 45
2018-01-21 06:00:00 13.1 3 Sudeste 12 Nordeste 0 -- -- 50
2018-01-21 05:00:00 14.1 6 Nordeste 13 Nordeste 0 -- -- 50
2018-01-21 04:00:00 15.8 5 Noroeste 19 Noroeste 0 -- -- 28
2018-01-21 03:00:00 13.6 4 Oeste 19 Oeste 0 -- -- 34
2018-01-21 02:00:00 14.1 4 Sudeste 23 Oeste 0 -- -- 36
2018-01-21 01:00:00 14.9 4 Noroeste 15 Oeste 0 -- -- 36
2018-01-21 00:00:00 15.3 7 Oeste 26 Oeste 0 -- -- 41
2018-01-20 23:00:00 15.6 9 Oeste 24 Oeste 0 -- -- 38
2018-01-20 22:00:00 13.3 5 Oeste 15 Oeste 0 -- -- 43
2018-01-20 21:00:00 13.9 7 Oeste 13 Oeste 0 -- -- 50
2018-01-20 20:00:00 15.3 7 Sudoeste 16 Oeste 0 -- -- 49
2018-01-20 19:00:00 17.5 7 Oeste 36 Oeste 0 -- -- 40
2018-01-20 18:00:00 19.1 17 Oeste 37 Oeste 0 -- -- 41
2018-01-20 17:00:00 20.3 12 Oeste 36 Oeste 0 -- -- 44
2018-01-20 16:00:00 20.5 18 Oeste 33 Oeste 0 -- -- 43
2018-01-20 15:00:00 21.2 14 Oeste 36 Oeste 0 -- -- 40
2018-01-20 14:00:00 21.1 8 Este 14 Este 0 -- -- 47
2018-01-20 13:00:00 20.7 4 Este 15 Este 0 -- -- 44
2018-01-20 12:00:00 19.2 4 Este 10 Este 0 -- -- 47
2018-01-20 11:00:00 17.2 5 Nordeste 12 Este 0 -- -- 52
2018-01-20 10:00:00 13.2 3 Este 10 Este 0 -- -- 62
2018-01-20 09:00:00 9.5 0 Calma 9 Norte 0 -- -- 71
2018-01-20 08:00:00 8.8 3 Noroeste 6 Nordeste 0 -- -- 73
2018-01-20 07:00:00 9.2 3 Oeste 6 Nordeste 0 -- -- 68
2018-01-20 06:00:00 10.2 5 Oeste 7 Oeste 0 -- -- 69
2018-01-20 05:00:00 10.8 2 Norte 10 Noroeste 0 -- -- 65
2018-01-20 04:00:00 11.6 6 Noroeste 10 Noroeste 0 -- -- 62
2018-01-20 03:00:00 10.6 0 Calma 10 Nordeste 0 -- -- 69
2018-01-20 02:00:00 11.4 5 Nordeste 12 Sudoeste 0 -- -- 65
2018-01-20 01:00:00 11.5 3 Norte 14 Oeste 0 -- -- 63
2018-01-20 00:00:00 11.4 4 Nordeste 7 Norte 0 -- -- 64
2018-01-19 23:00:00 11.3 5 Nordeste 13 Oeste 0 -- -- 69
2018-01-19 22:00:00 11.9 3 Noroeste 8 Oeste 0 -- -- 72
2018-01-19 21:00:00 12.4 2 Noroeste 12 Oeste 0 -- -- 70
2018-01-19 20:00:00 13.2 5 Oeste 9 Oeste 0 -- -- 74
2018-01-19 19:00:00 14.2 2 Oeste 11 Nordeste 0 -- -- 71
2018-01-19 18:00:00 15.7 6 Nordeste 15 Este 0 -- -- 67
2018-01-19 17:00:00 16.6 9 Nordeste 14 Este 0 -- -- 66
2018-01-19 16:00:00 17.1 5 Este 10 Sur 0 -- -- 64
2018-01-19 15:00:00 18.8 6 Sur 14 Sur 0 -- -- 57
2018-01-19 14:00:00 18.2 4 Sudeste 8 Este 0 -- -- 54
2018-01-19 13:00:00 16.7 2 Este 10 Este 0 -- -- 61
2018-01-19 12:00:00 15.5 5 Este 9 Este 0 -- -- 64
2018-01-19 11:00:00 14.1 6 Oeste 9 Oeste 0 -- -- 66
2018-01-19 10:00:00 12.5 0 Calma 5 Noroeste 0 -- -- 73
2018-01-19 09:00:00 11.8 2 Oeste 6 Noroeste 0 -- -- 72
2018-01-19 08:00:00 12 3 Noroeste 12 Nordeste 0 -- -- 70
2018-01-19 07:00:00 12.6 3 Este 10 Oeste 0 -- -- 66
2018-01-19 06:00:00 13.2 4 Oeste 8 Oeste 0 -- -- 64
2018-01-19 05:00:00 13.3 3 Noroeste 6 Norte 0 -- -- 64
2018-01-19 04:00:00 13.5 2 Este 6 Oeste 0 -- -- 61
2018-01-19 03:00:00 13.7 3 Noroeste 9 Nordeste 0 -- -- 59
2018-01-19 02:00:00 14 2 Noroeste 13 Nordeste 0 -- -- 58
2018-01-19 01:00:00 14.1 4 Nordeste 17 Nordeste 0 -- -- 58
2018-01-19 00:00:00 14 7 Nordeste 16 Nordeste 0 -- -- 57
2018-01-18 23:00:00 14 7 Nordeste 17 Nordeste 0 -- -- 59
2018-01-18 22:00:00 14.2 8 Nordeste 18 Nordeste 0 -- -- 54
2018-01-18 21:00:00 14.1 9 Nordeste 19 Nordeste 0 -- -- 54
2018-01-18 20:00:00 14.5 7 Nordeste 21 Nordeste 0 -- -- 52
2018-01-18 19:00:00 14.8 10 Nordeste 23 Nordeste 0 -- -- 51
2018-01-18 18:00:00 15 10 Nordeste 24 Este 0 -- -- 51
2018-01-18 17:00:00 15.8 18 Este -- -- 0 -- -- 59
2018-01-18 16:00:00 16.3 -- -- -- -- 0 -- -- 59
2018-01-18 15:00:00 16.7 15 Este 29 Este 0 -- -- 58
2018-01-18 14:00:00 16.8 19 Este -- -- 0 -- -- 57
2018-01-18 13:00:00 16.5 -- -- -- -- 0 -- -- 61
2018-01-18 12:00:00 15.9 30 Este 51 Este 0 -- -- 63
2018-01-18 11:00:00 15.6 33 Este 50 Este 0 -- -- 67
2018-01-18 10:00:00 14.6 15 Nordeste 34 Nordeste 0 -- -- 68
2018-01-18 09:00:00 14.1 14 Nordeste 33 Nordeste 0 -- -- 65
2018-01-18 08:00:00 14.1 13 Nordeste 31 Nordeste 0 -- -- 64
2018-01-18 07:00:00 13.7 12 Nordeste 28 Nordeste 0 -- -- 59
2018-01-18 06:00:00 13.9 10 Nordeste 28 Nordeste 0 -- -- 57
2018-01-18 05:00:00 14.8 14 Nordeste 33 Nordeste 0 -- -- 51
2018-01-18 04:00:00 14.9 12 Nordeste 30 Nordeste 0 -- -- 45
2018-01-18 03:00:00 14.8 13 Nordeste 31 Nordeste 0 -- -- 40
2018-01-18 02:00:00 12.5 12 Nordeste 27 Nordeste 0 -- -- 60
2018-01-18 01:00:00 12.5 9 Nordeste 26 Nordeste 0 -- -- 73
2018-01-18 00:00:00 12.6 10 Nordeste 24 Nordeste 0 -- -- 75
2018-01-17 23:00:00 12.3 11 Nordeste 20 Nordeste 0 -- -- 79
2018-01-17 22:00:00 12.3 8 Nordeste 16 Nordeste 0 -- -- 76
2018-01-17 21:00:00 11.6 5 Nordeste 12 Nordeste 0 -- -- 76
2018-01-17 20:00:00 12.4 2 Oeste 5 Oeste 0 -- -- 75
2018-01-17 19:00:00 13.7 2 Norte 19 Este 0 -- -- 74
2018-01-17 18:00:00 15 12 Este 28 Este 0 -- -- 72
2018-01-17 17:00:00 16 15 Este 26 Este 0 -- -- 70
2018-01-17 16:00:00 16.2 18 Este 25 Este 0 -- -- 65
2018-01-17 15:00:00 17.5 9 Este 13 Este 0 -- -- 57
2018-01-17 14:00:00 18.6 7 Este 12 Sudeste 0 -- -- 57
2018-01-17 13:00:00 17.7 6 Sudeste 13 Este 0 -- -- 57
2018-01-17 12:00:00 16.8 7 Este 13 Este 0 -- -- 61
2018-01-17 11:00:00 15.7 6 Este 10 Este 0 -- -- 68
2018-01-17 10:00:00 12.1 0 Calma 9 Norte 0 -- -- 79
2018-01-17 09:00:00 10.2 5 Noroeste 8 Noroeste 0 -- -- 83
2018-01-17 08:00:00 8.6 2 Oeste 4 Noroeste 0 -- -- 81
2018-01-17 07:00:00 8.7 0 Calma 4 Noroeste 0 -- -- 80
2018-01-17 06:00:00 9.6 0 Calma 9 Noroeste 0 -- -- 79
2018-01-17 05:00:00 9.2 4 Norte 7 Norte 0 -- -- 83
2018-01-17 04:00:00 9 2 Norte 4 Nordeste 0 -- -- 81
2018-01-17 03:00:00 9.8 2 Nordeste 6 Noroeste 0 -- -- 79
2018-01-17 02:00:00 10.4 3 Noroeste 8 Noroeste 0 -- -- 79
2018-01-17 01:00:00 10.4 3 Oeste 7 Noroeste 0 -- -- 79
2018-01-17 00:00:00 9.9 3 Noroeste 6 Norte 0 -- -- 80
2018-01-16 23:00:00 10.4 0 Calma 6 Noroeste 0 -- -- 77
2018-01-16 22:00:00 10.4 3 Noroeste 6 Oeste 0 -- -- 78
2018-01-16 21:00:00 10.7 0 Calma 5 Noroeste 0 -- -- 76
2018-01-16 20:00:00 11.7 2 Norte 9 Sudoeste 0 -- -- 74
2018-01-16 19:00:00 12.7 4 Oeste 11 Sudoeste 0 -- -- 71
2018-01-16 18:00:00 14.2 6 Sudoeste 13 Sudoeste 0 -- -- 65
2018-01-16 17:00:00 15.2 8 Sudoeste 12 Sudoeste 0 -- -- 63
2018-01-16 16:00:00 15.8 5 Sudoeste 11 Sudoeste 0 -- -- 59
2018-01-16 15:00:00 17.1 6 Sudoeste 11 Sudoeste 0 -- -- 54
2018-01-16 14:00:00 18 5 Sur 10 Sur 0 -- -- 52
2018-01-16 13:00:00 16.3 4 Sudoeste 6 Sur 0 -- -- 56
2018-01-16 12:00:00 15.4 3 Sudoeste 7 Sudoeste 0 -- -- 54
2018-01-16 11:00:00 13.5 4 Sudoeste 7 Sudoeste 0 -- -- 63
2018-01-16 10:00:00 11.3 2 Sudoeste 8 Norte 0 -- -- 67
2018-01-16 09:00:00 9.2 2 Noroeste 8 Noroeste 0 -- -- 63
2018-01-16 08:00:00 9.7 5 Noroeste 9 Noroeste 0 -- -- 61
2018-01-16 07:00:00 8.6 3 Noroeste 7 Noroeste 0 -- -- 69
2018-01-16 06:00:00 9.3 3 Noroeste 7 Noroeste 0 -- -- 68
2018-01-16 05:00:00 9.6 2 Noroeste 9 Oeste 0 -- -- 68
2018-01-16 04:00:00 9.9 3 Noroeste 9 Nordeste 0 -- -- 69
2018-01-16 03:00:00 10.2 2 Noroeste 10 Nordeste 0 -- -- 66
2018-01-16 02:00:00 10.2 2 Noroeste 8 Nordeste 0 -- -- 62
2018-01-16 01:00:00 10.1 2 Noroeste 7 Nordeste 0 -- -- 62
2018-01-16 00:00:00 10.1 2 Norte 7 Norte 0 -- -- 65
2018-01-15 23:00:00 10.3 2 Noroeste 8 Nordeste 0 -- -- 65
2018-01-15 22:00:00 10.5 3 Noroeste 8 Nordeste 0 -- -- 66
2018-01-15 21:00:00 10.9 4 Norte 14 Nordeste 0 -- -- 67
2018-01-15 20:00:00 11.4 7 Nordeste 17 Nordeste 0 -- -- 67
2018-01-15 19:00:00 12.3 7 Nordeste 35 Este 0 -- -- 67
2018-01-15 18:00:00 13.1 23 Este 37 Este 0 -- -- 66
2018-01-15 17:00:00 13.6 20 Este -- -- 0 -- -- 63
2018-01-15 16:00:00 14 17 Este -- -- 0 -- -- 59
2018-01-15 15:00:00 15 -- -- -- -- 0 -- -- 53
2018-01-15 14:00:00 16.4 14 Este 25 Este 0 -- -- 47
2018-01-15 13:00:00 15.7 11 Este 19 Este 0 -- -- 44
2018-01-15 12:00:00 14.9 10 Este 19 Este 0 -- -- 42
2018-01-15 11:00:00 12.7 3 Sudoeste 7 Sudoeste 0 -- -- 55
2018-01-15 10:00:00 9.8 0 Calma 7 Este 0 -- -- 56
2018-01-15 09:00:00 7.5 3 Noroeste 8 Noroeste 0 -- -- 58
2018-01-15 08:00:00 6.3 3 Oeste 6 Norte 0 -- -- 64
2018-01-15 07:00:00 7.1 0 Calma 9 Norte 0 -- -- 59
2018-01-15 06:00:00 7.9 5 Noroeste 9 Noroeste 0 -- -- 55
2018-01-15 05:00:00 7.4 4 Noroeste 7 Norte 0 -- -- 61
2018-01-15 04:00:00 8.1 3 Noroeste 10 Noroeste 0 -- -- 58
2018-01-15 03:00:00 9.4 3 Nordeste 18 Nordeste 0 -- -- 52
2018-01-15 02:00:00 10 6 Nordeste 25 Nordeste 0 -- -- 51
2018-01-15 01:00:00 9.6 5 Nordeste 17 Noroeste 0 -- -- 55
2018-01-15 00:00:00 7.8 2 Noroeste 9 Nordeste 0 -- -- 65
2018-01-14 23:00:00 8.3 3 Noroeste 10 Nordeste 0 -- -- 64
2018-01-14 22:00:00 8.4 3 Oeste 11 Noroeste 0 -- -- 64
2018-01-14 21:00:00 8.6 5 Oeste 10 Nordeste 0 -- -- 66
2018-01-14 20:00:00 9.6 4 Oeste 12 Oeste 0 -- -- 63
2018-01-14 19:00:00 10.8 6 Oeste 31 Oeste 0 -- -- 59
2018-01-14 18:00:00 12.4 12 Oeste 25 Oeste 0 -- -- 54
2018-01-14 17:00:00 12.9 12 Oeste 27 Oeste 0 -- -- 65
2018-01-14 16:00:00 12.4 12 Oeste 29 Oeste 0 -- -- 73
2018-01-14 15:00:00 11.5 8 Oeste 17 Noroeste 0.2 -- -- 78
2018-01-14 14:00:00 10.7 10 Sudoeste 24 Sudoeste 0.2 -- -- 81
2018-01-14 13:00:00 10.8 14 Oeste 26 Oeste 0.8 -- -- 80
2018-01-14 12:00:00 11 10 Oeste 27 Sudoeste 0.2 -- -- 77
2018-01-14 11:00:00 11.9 18 Sudoeste 33 Sudoeste 0 -- -- 73
2018-01-14 10:00:00 11.6 8 Oeste 17 Oeste 0 -- -- 71
2018-01-14 09:00:00 10.6 6 Oeste 18 Oeste 0 -- -- 75
2018-01-14 08:00:00 10.8 11 Oeste 23 Sudoeste 0 -- -- 72
2018-01-14 07:00:00 10.6 6 Oeste 15 Sudoeste 0 -- -- 68
2018-01-14 06:00:00 10.5 8 Oeste 16 Oeste 0 -- -- 67
2018-01-14 05:00:00 10.8 12 Oeste 22 Sudoeste 0 -- -- 66
2018-01-14 04:00:00 10.9 10 Oeste 25 Oeste 0 -- -- 60
2018-01-14 03:00:00 11.1 9 Oeste 18 Oeste 0 -- -- 62
2018-01-14 02:00:00 11 9 Oeste 24 Oeste 0 -- -- 68
2018-01-14 01:00:00 11.1 10 Oeste 19 Oeste 0 -- -- 67
2018-01-14 00:00:00 11.6 12 Oeste 20 Sudoeste 0 -- -- 66
2018-01-13 23:00:00 11.4 13 Oeste 28 Oeste 0 -- -- 66
2018-01-13 22:00:00 11.7 15 Oeste 26 Sudoeste 0 -- -- 64
2018-01-13 21:00:00 10.9 3 Sur 10 Norte 0 -- -- 65
2018-01-13 20:00:00 12 2 Norte 23 Oeste 0 -- -- 63
2018-01-13 19:00:00 12.6 12 Oeste 26 Oeste 0 -- -- 74
2018-01-13 18:00:00 13.4 14 Sudoeste 27 Sudoeste 0 -- -- 76
2018-01-13 17:00:00 13.3 16 Sudoeste 32 Oeste 0 -- -- 77
2018-01-13 16:00:00 12.8 13 Sudoeste 23 Sudoeste 0.2 -- -- 81
2018-01-13 15:00:00 13.2 10 Sudoeste 28 Oeste 0 -- -- 73
2018-01-13 14:00:00 14.1 13 Oeste 28 Oeste 0 -- -- 63
2018-01-13 13:00:00 13.9 10 Sudoeste 20 Sudoeste 0 -- -- 65
2018-01-13 12:00:00 13.3 5 Oeste 16 Oeste 0 -- -- 67
2018-01-13 11:00:00 12 4 Oeste 9 Oeste 0 -- -- 63
2018-01-13 10:00:00 10.6 4 Noroeste 8 Norte 0 -- -- 60
2018-01-13 09:00:00 9 0 Calma 7 Norte 0 -- -- 63
2018-01-13 08:00:00 10.2 3 Noroeste 8 Noroeste 0 -- -- 61
2018-01-13 07:00:00 10.4 5 Noroeste 7 Noroeste 0 -- -- 60
2018-01-13 06:00:00 9.7 3 Noroeste 7 Noroeste 0 -- -- 58
2018-01-13 05:00:00 9.9 3 Noroeste 7 Noroeste 0 -- -- 60
2018-01-13 04:00:00 9.7 3 Oeste 7 Oeste 0 -- -- 60
2018-01-13 03:00:00 9.9 3 Noroeste 10 Nordeste 0 -- -- 56
2018-01-13 02:00:00 9.7 3 Norte 11 Nordeste 0 -- -- 54
2018-01-13 01:00:00 9.4 3 Noroeste 8 Norte 0 -- -- 57
2018-01-13 00:00:00 8.9 2 Noroeste 6 Noroeste 0 -- -- 57
2018-01-12 23:00:00 10.1 3 Noroeste 8 Norte 0 -- -- 51
2018-01-12 22:00:00 9.7 3 Noroeste 6 Norte 0 -- -- 52
2018-01-12 21:00:00 10.8 5 Norte 7 Norte 0 -- -- 51
2018-01-12 20:00:00 10.6 5 Noroeste 7 Norte 0 -- -- 55
2018-01-12 19:00:00 10.6 2 Norte 5 Nordeste 0 -- -- 56
2018-01-12 18:00:00 12.6 2 Sudoeste 5 Sur 0 -- -- 50
2018-01-12 17:00:00 13.7 3 Sudoeste 9 Sudoeste 0 -- -- 50
2018-01-12 16:00:00 14.3 3 Sur 9 Sudeste 0 -- -- 47
2018-01-12 15:00:00 15.3 4 Sur 10 Este 0 -- -- 44
2018-01-12 14:00:00 16.7 4 Este 10 Este 0 -- -- 43
2018-01-12 13:00:00 16 4 Sur 12 Sudeste 0 -- -- 47
2018-01-12 12:00:00 15.1 5 Sur 10 Este 0 -- -- 47
2018-01-12 11:00:00 15.1 9 Este 15 Este 0 -- -- 52
2018-01-12 10:00:00 11.1 5 Oeste 11 Oeste 0 -- -- 52
2018-01-12 09:00:00 7.8 2 Noroeste 8 Noroeste 0 -- -- 66
2018-01-12 08:00:00 8.3 3 Noroeste 8 Noroeste 0 -- -- 62
2018-01-12 07:00:00 9.1 5 Norte 10 Nordeste 0 -- -- 61
2018-01-12 06:00:00 9.3 5 Norte 11 Norte 0 -- -- 62
2018-01-12 05:00:00 8.9 4 Noroeste 8 Sudoeste 0 -- -- 68
2018-01-12 04:00:00 8.7 3 Este 10 Nordeste 0 -- -- 69
2018-01-12 03:00:00 9.6 2 Norte 7 Noroeste 0 -- -- 65
2018-01-12 02:00:00 10.7 4 Oeste 13 Oeste 0 -- -- 63
2018-01-12 01:00:00 11.6 7 Oeste 19 Sudoeste 0 -- -- 63
2018-01-12 00:00:00 11.9 5 Oeste 24 Noroeste 0 -- -- 64
2018-01-11 23:00:00 12.7 11 Oeste 26 Oeste 0 -- -- 62
2018-01-11 22:00:00 13.4 13 Oeste 34 Oeste 0 -- -- 60
2018-01-11 21:00:00 13.8 15 Oeste -- -- 0 -- -- 57
2018-01-11 20:00:00 14 -- -- -- -- 0 -- -- 57
2018-01-11 19:00:00 14.6 15 Oeste 27 Oeste 0 -- -- 51
2018-01-11 18:00:00 15.4 8 Oeste 27 Sudoeste 0 -- -- 46
2018-01-11 17:00:00 16.3 14 Oeste -- -- 0 -- -- 44
2018-01-11 16:00:00 15.9 -- -- -- -- 0 -- -- 46
2018-01-11 15:00:00 16.2 -- -- -- -- 0 -- -- 44
2018-01-11 14:00:00 16.8 -- -- -- -- 0 -- -- 43
2018-01-11 13:00:00 16.9 -- -- -- -- 0 -- -- 41
2018-01-11 12:00:00 15.5 -- -- -- -- 0 -- -- 45
2018-01-11 11:00:00 13.3 -- -- -- -- 0 -- -- 52
2018-01-11 10:00:00 11.1 -- -- -- -- 0 -- -- 53
2018-01-11 09:00:00 9.5 6 Oeste -- -- 0 -- -- 57
2018-01-11 08:00:00 9.5 -- -- -- -- 0 -- -- 56
2018-01-11 07:00:00 9.8 3 Noroeste 19 Sudoeste 0 -- -- 60
2018-01-11 06:00:00 10.5 10 Oeste 23 Sudoeste 0 -- -- 59
2018-01-11 05:00:00 11.9 13 Sudoeste 22 Sudoeste 0 -- -- 57
2018-01-11 04:00:00 12.6 -- -- -- -- 0 -- -- 46
2018-01-11 03:00:00 12.5 3 Norte 34 Oeste 0 -- -- 50
2018-01-11 02:00:00 13.5 12 Oeste -- -- 0 -- -- 53
2018-01-11 01:00:00 14.6 -- -- -- -- 0 -- -- 46
2018-01-11 00:00:00 14.1 -- -- -- -- 0 -- -- 57
2018-01-10 23:00:00 14.2 -- -- -- -- 0 -- -- 72
2018-01-10 22:00:00 15.3 -- -- -- -- 0 -- -- 68
2018-01-10 21:00:00 15 -- -- -- -- 0 -- -- 69
2018-01-10 20:00:00 15.1 -- -- -- -- 0 -- -- 68
2018-01-10 19:00:00 15.5 17 Sudoeste -- -- 0 -- -- 66
2018-01-10 18:00:00 16.5 -- -- -- -- 0 -- -- 58
2018-01-10 17:00:00 17.2 -- -- -- -- 0 -- -- 60
2018-01-10 16:00:00 18.2 -- -- -- -- 0 -- -- 55
2018-01-10 15:00:00 18 -- -- -- -- 0 -- -- 49
2018-01-10 14:00:00 17.8 18 Oeste 42 Oeste 0 -- -- 50
2018-01-10 13:00:00 17 14 Sudoeste -- -- 0 -- -- 58
2018-01-10 12:00:00 16.1 -- -- -- -- 0 -- -- 63
2018-01-10 11:00:00 13.4 -- -- -- -- 0 -- -- 82
2018-01-10 10:00:00 11.8 3 Norte 9 Oeste 0 -- -- 88
2018-01-10 09:00:00 10.4 4 Norte 8 Nordeste 0 -- -- 87
2018-01-10 08:00:00 10.8 4 Nordeste 13 Nordeste 0 -- -- 87
2018-01-10 07:00:00 10.9 4 Este 15 Nordeste 0 -- -- 87
2018-01-10 06:00:00 12.3 5 Sur 13 Este 0.2 -- -- 87
2018-01-10 05:00:00 12.2 3 Oeste 10 Oeste 0 -- -- 86
2018-01-10 04:00:00 12.4 6 Oeste 10 Oeste 0 -- -- 86
2018-01-10 03:00:00 12.5 3 Sudoeste 8 Oeste 2.6 -- -- 85
2018-01-10 02:00:00 12.5 3 Nordeste 12 Oeste 6.2 -- -- 84
2018-01-10 01:00:00 12.7 7 Oeste -- -- 5.4 -- -- 81
2018-01-10 00:00:00 13.1 7 Oeste -- -- 0 -- -- 77
2018-01-09 23:00:00 13.3 -- -- -- -- 0 -- -- 78
2018-01-09 22:00:00 12.3 8 Oeste -- -- 0 -- -- 83
2018-01-09 21:00:00 12 -- -- -- -- 0.2 -- -- 85
2018-01-09 20:00:00 11.5 5 Noroeste -- -- 0.8 -- -- 83
2018-01-09 19:00:00 11.8 4 Oeste 8 Sudoeste 1 -- -- 82
2018-01-09 18:00:00 12.3 5 Sur 9 Sur 1.2 -- -- 81
2018-01-09 17:00:00 12.8 5 Oeste 15 Noroeste 0.6 -- -- 77
2018-01-09 16:00:00 13.4 6 Sudoeste 10 Oeste 0 -- -- 73
2018-01-09 15:00:00 13.7 6 Oeste 17 Oeste 0 -- -- 67
2018-01-09 14:00:00 13.7 9 Oeste 17 Oeste 0 -- -- 63
2018-01-09 13:00:00 13.1 9 Oeste 24 Sudoeste 0 -- -- 64
2018-01-09 12:00:00 12.8 10 Oeste 20 Oeste 0 -- -- 64
2018-01-09 11:00:00 12.2 7 Sudoeste 20 Oeste 0 -- -- 65
2018-01-09 10:00:00 10.9 8 Oeste 18 Oeste 0 -- -- 62
2018-01-09 09:00:00 10.4 12 Oeste 26 Oeste 0 -- -- 62
2018-01-09 08:00:00 10.1 13 Oeste -- -- 0 -- -- 60
2018-01-09 07:00:00 8.4 9 Oeste -- -- 0 -- -- 68
2018-01-09 06:00:00 5.3 4 Oeste 9 Oeste 0 -- -- 80
2018-01-09 05:00:00 6.2 6 Oeste 9 Oeste 0 -- -- 81
2018-01-09 04:00:00 5.3 0 Calma 6 Noroeste 0 -- -- 80
2018-01-09 03:00:00 5.8 4 Oeste 7 Noroeste 0 -- -- 79
2018-01-09 02:00:00 5.8 2 Noroeste 6 Norte 0 -- -- 79
2018-01-09 01:00:00 6 2 Nordeste 7 Oeste 0 -- -- 79
2018-01-09 00:00:00 7 5 Oeste -- -- 0 -- -- 78
2018-01-08 23:00:00 7.9 -- -- -- -- 0 -- -- 77
2018-01-08 22:00:00 7.6 5 Oeste 9 Oeste 0 -- -- 79
2018-01-08 21:00:00 7.8 3 Noroeste 8 Noroeste 0 -- -- 79
2018-01-08 20:00:00 7.6 2 Noroeste 6 Oeste 0 -- -- 79
2018-01-08 19:00:00 8.3 3 Norte 13 Nordeste 0 -- -- 78
2018-01-08 18:00:00 8.8 6 Nordeste 23 Nordeste 0 -- -- 76
2018-01-08 17:00:00 9.4 14 Este 31 Este 0.2 -- -- 78
2018-01-08 16:00:00 9.8 14 Este 26 Este 0 -- -- 81
2018-01-08 15:00:00 9.4 10 Nordeste 19 Nordeste 0 -- -- 84
2018-01-08 14:00:00 8.8 6 Nordeste 19 Nordeste 1 -- -- 83
2018-01-08 13:00:00 8.7 3 Norte 16 Sudeste 0.2 -- -- 80
2018-01-08 12:00:00 8.7 -- -- -- -- 0.2 -- -- 81
2018-01-08 11:00:00 8.1 23 Sudoeste -- -- 1.8 -- -- 83
2018-01-08 10:00:00 7.5 14 Oeste -- -- 6.6 -- -- 82
2018-01-08 09:00:00 8.8 -- -- -- -- 3.2 -- -- 82
2018-01-08 08:00:00 8.9 5 Nordeste 9 Nordeste 0.4 -- -- 80
2018-01-08 07:00:00 8.9 3 Noroeste 7 Nordeste 0.2 -- -- 77
2018-01-08 06:00:00 8.8 5 Oeste 17 Oeste 0.6 -- -- 75
2018-01-08 05:00:00 9.3 8 Oeste 15 Oeste 0 -- -- 66
2018-01-08 04:00:00 9.2 8 Oeste 17 Oeste 0 -- -- 66
2018-01-08 03:00:00 8.9 7 Oeste 20 Oeste 0 -- -- 69
2018-01-08 02:00:00 9 9 Oeste 27 Oeste 0 -- -- 71
2018-01-08 01:00:00 9.3 8 Oeste 19 Sudoeste 0 -- -- 71
2018-01-08 00:00:00 9.6 12 Sudoeste 24 Oeste 0 -- -- 66
2018-01-07 23:00:00 9.6 12 Oeste 27 Oeste 0 -- -- 64
2018-01-07 22:00:00 10 17 Sudoeste 30 Sudoeste 0 -- -- 63
2018-01-07 21:00:00 10.4 9 Oeste 24 Oeste 0 -- -- 56
2018-01-07 20:00:00 10.7 12 Oeste 29 Oeste 0 -- -- 53
2018-01-07 19:00:00 10.6 10 Oeste 33 Oeste 0 -- -- 49
2018-01-07 18:00:00 11.4 14 Oeste 30 Oeste 0 -- -- 48
2018-01-07 17:00:00 12.2 13 Oeste 30 Oeste 0 -- -- 46
2018-01-07 16:00:00 11.9 14 Oeste 30 Sudoeste 0 -- -- 48
2018-01-07 15:00:00 12.1 17 Oeste 34 Sudoeste 0 -- -- 46
2018-01-07 14:00:00 12.9 14 Oeste 35 Oeste 0 -- -- 42
2018-01-07 13:00:00 10.8 15 Oeste 30 Sudoeste 0 -- -- 48
2018-01-07 12:00:00 9.7 14 Sudoeste 29 Oeste 0 -- -- 52
2018-01-07 11:00:00 9.2 18 Oeste 29 Oeste 0 -- -- 49
2018-01-07 10:00:00 10.8 3 Sudeste 15 Nordeste 0 -- -- 40
2018-01-07 09:00:00 8.4 4 Nordeste 21 Oeste 0 -- -- 41
2018-01-07 08:00:00 7.8 11 Sudoeste 24 Oeste 0 -- -- 50
2018-01-07 07:00:00 7.2 14 Oeste 30 Sudoeste 0 -- -- 57
2018-01-07 06:00:00 7.8 13 Oeste 24 Sudoeste 0 -- -- 55
2018-01-07 05:00:00 7.6 7 Oeste 21 Oeste 0 -- -- 53
2018-01-07 04:00:00 7.5 9 Oeste 23 Oeste 0 -- -- 54
2018-01-07 03:00:00 7.6 11 Oeste 28 Oeste 0 -- -- 54
2018-01-07 02:00:00 8.4 9 Sudoeste 19 Oeste 0 -- -- 49
2018-01-07 01:00:00 9.7 12 Oeste 27 Sudoeste 0 -- -- 43
2018-01-07 00:00:00 9.4 6 Oeste 30 Oeste 0 -- -- 38
2018-01-06 23:00:00 9.4 9 Oeste 24 Sudoeste 0 -- -- 42
2018-01-06 22:00:00 9.9 13 Oeste 28 Oeste 0 -- -- 39
2018-01-06 21:00:00 9.8 13 Oeste 32 Oeste 0 -- -- 47
2018-01-06 20:00:00 10 11 Oeste 24 Oeste 0 -- -- 51
2018-01-06 19:00:00 10.8 13 Oeste 33 Oeste 0 -- -- 50
2018-01-06 18:00:00 11.9 11 Oeste 43 Oeste 0 -- -- 46
2018-01-06 17:00:00 12.8 14 Oeste 39 Oeste 0 -- -- 40
2018-01-06 16:00:00 13.4 18 Oeste 41 Oeste 0 -- -- 41
2018-01-06 15:00:00 13.4 21 Oeste 42 Oeste 0 -- -- 40
2018-01-06 14:00:00 13.3 19 Oeste 49 Oeste 0 -- -- 45
2018-01-06 13:00:00 12.3 24 Oeste 48 Oeste 0 -- -- 53
2018-01-06 12:00:00 12.6 12 Oeste 50 Oeste 0 -- -- 53
2018-01-06 11:00:00 10.8 23 Oeste 48 Sudoeste 0 -- -- 58
2018-01-06 10:00:00 9.7 9 Oeste 24 Noroeste 0 -- -- 84
2018-01-06 09:00:00 10.5 4 Nordeste 20 Sudoeste 0.2 -- -- 86
2018-01-06 08:00:00 10.9 3 Sudoeste 26 Oeste 6 -- -- 85
2018-01-06 07:00:00 10.8 8 Nordeste 15 Nordeste 2.4 -- -- 84
2018-01-06 06:00:00 10.7 4 Nordeste 22 Sur 1.8 -- -- 82
2018-01-06 05:00:00 11 5 Sur 33 Oeste 1.4 -- -- 80
2018-01-06 04:00:00 11.8 23 Oeste 80 Sudoeste 1 -- -- 73
2018-01-06 03:00:00 14.5 23 Sudoeste 34 Sudoeste 0 -- -- 70
2018-01-06 02:00:00 14.6 15 Sudoeste 24 Sudoeste 0 -- -- 70
2018-01-06 01:00:00 14.9 16 Sudoeste 32 Sudoeste 0 -- -- 68
2018-01-06 00:00:00 14.8 8 Oeste 18 Oeste 0 -- -- 66
2018-01-05 23:00:00 15 9 Sudoeste 19 Oeste 0 -- -- 66
2018-01-05 22:00:00 15.1 13 Sudoeste 25 Sudoeste 0 -- -- 65
2018-01-05 21:00:00 15.1 12 Oeste 24 Noroeste 0 -- -- 65
2018-01-05 20:00:00 15.1 7 Oeste 20 Oeste 0 -- -- 63
2018-01-05 19:00:00 15.5 7 Oeste 33 Oeste 0 -- -- 61
2018-01-05 18:00:00 15.9 15 Oeste 41 Oeste 0 -- -- 60
2018-01-05 17:00:00 16.4 16 Oeste 39 Oeste 0 -- -- 59
2018-01-05 16:00:00 16.9 18 Oeste 45 Oeste 0 -- -- 59
2018-01-05 15:00:00 17.8 16 Oeste 41 Sudoeste 0 -- -- 50
2018-01-05 14:00:00 17.8 21 Oeste 45 Noroeste 0 -- -- 49
2018-01-05 13:00:00 18.4 20 Oeste 49 Oeste 0 -- -- 45
2018-01-05 12:00:00 17.5 22 Oeste 48 Oeste 0 -- -- 49
2018-01-05 11:00:00 16.1 20 Oeste 40 Sudoeste 0 -- -- 58
2018-01-05 10:00:00 16 15 Oeste 33 Oeste 0 -- -- 55
2018-01-05 09:00:00 15.3 12 Sudoeste 39 Oeste 0 -- -- 62
2018-01-05 08:00:00 15.3 5 Sudoeste 37 Oeste 0 -- -- 58
2018-01-05 07:00:00 14.9 18 Oeste 57 Oeste 0 -- -- 57
2018-01-05 06:00:00 13.8 27 Oeste 49 Oeste 0 -- -- 68
2018-01-05 05:00:00 10.3 3 Noroeste 8 Norte 0 -- -- 84
2018-01-05 04:00:00 10.5 3 Oeste 7 Noroeste 0 -- -- 83
2018-01-05 03:00:00 10.9 3 Este 8 Oeste 0 -- -- 83
2018-01-05 02:00:00 11.2 4 Noroeste 6 Noroeste 0 -- -- 82
2018-01-05 01:00:00 11.5 0 Calma 5 Sudoeste 0 -- -- 81
2018-01-05 00:00:00 12 2 Sudoeste 6 Sudoeste 0 -- -- 80
2018-01-04 23:00:00 12.6 2 Oeste 7 Oeste 0 -- -- 77
2018-01-04 22:00:00 12.6 2 Este 4 Nordeste 0 -- -- 74
2018-01-04 21:00:00 13.9 3 Noroeste 6 Noroeste 0 -- -- 70
2018-01-04 20:00:00 15.3 6 Oeste 21 Oeste 0 -- -- 64
2018-01-04 19:00:00 15.5 10 Oeste 17 Oeste 0 -- -- 68
2018-01-04 18:00:00 16.5 4 Este 14 Este 0 -- -- 67
2018-01-04 17:00:00 17.5 10 Este 29 Oeste 0 -- -- 62
2018-01-04 16:00:00 18.4 6 Este 17 Noroeste 0 -- -- 62
2018-01-04 15:00:00 19 9 Este 13 Este 0 -- -- 56
2018-01-04 14:00:00 20.5 5 Este 11 Este 0 -- -- 55
2018-01-04 13:00:00 19.7 6 Nordeste 12 Nordeste 0 -- -- 54
2018-01-04 12:00:00 18.2 8 Este 12 Este 0 -- -- 59
2018-01-04 11:00:00 16.9 4 Sur 6 Sur 0 -- -- 62
2018-01-04 10:00:00 13.8 4 Este 6 Nordeste 0 -- -- 76
2018-01-04 09:00:00 10.8 2 Norte 4 Este 0 -- -- 79
2018-01-04 08:00:00 10.6 2 Oeste 4 Nordeste 0 -- -- 77
2018-01-04 07:00:00 10.8 2 Noroeste 5 Noroeste 0 -- -- 76
2018-01-04 06:00:00 11.3 4 Noroeste 7 Nordeste 0 -- -- 77
2018-01-04 05:00:00 10.8 2 Noroeste 8 Nordeste 0 -- -- 79
2018-01-04 04:00:00 11.2 2 Norte 9 Nordeste 0 -- -- 81
2018-01-04 03:00:00 11.7 0 Calma 5 Oeste 0 -- -- 80
2018-01-04 02:00:00 11.7 2 Noroeste 6 Este 0 -- -- 79
2018-01-04 01:00:00 12.1 4 Noroeste 7 Noroeste 0 -- -- 77
2018-01-04 00:00:00 12.3 0 Calma 7 Norte 0 -- -- 76
2018-01-03 23:00:00 12.9 3 Noroeste 8 Nordeste 0 -- -- 77
2018-01-03 22:00:00 13.5 3 Oeste 6 Norte 0 -- -- 76
2018-01-03 21:00:00 14.5 4 Noroeste 9 Oeste 0 -- -- 80
2018-01-03 20:00:00 14.8 5 Oeste 10 Nordeste 0 -- -- 80
2018-01-03 19:00:00 15.3 4 Nordeste 10 Este 0 -- -- 79
2018-01-03 18:00:00 16.3 5 Nordeste 13 Este 0 -- -- 74
2018-01-03 17:00:00 17.9 5 Nordeste 11 Este 0 -- -- 64
2018-01-03 16:00:00 18.9 5 Sudoeste 10 Sudoeste 0 -- -- 61
2018-01-03 15:00:00 19.2 4 Sudoeste 11 Sudoeste 0 -- -- 56
2018-01-03 14:00:00 20.4 7 Sudoeste 13 Sudoeste 0 -- -- 54
2018-01-03 13:00:00 20.9 5 Este 9 Este 0 -- -- 49
2018-01-03 12:00:00 18.7 4 Este 9 Este 0 -- -- 56
2018-01-03 11:00:00 17.3 2 Oeste 9 Sur 0 -- -- 62
2018-01-03 10:00:00 15.6 4 Sudeste 8 Sudeste 0 -- -- 66
2018-01-03 09:00:00 12.9 3 Norte 11 Norte 0 -- -- 72
2018-01-03 08:00:00 12 3 Nordeste 9 Nordeste 0 -- -- 76
2018-01-03 07:00:00 12.7 3 Sudoeste 5 Sudeste 0 -- -- 72
2018-01-03 06:00:00 14.1 0 Calma 10 Noroeste 0 -- -- 62
2018-01-03 05:00:00 13.2 3 Noroeste 8 Noroeste 0 -- -- 67
2018-01-03 04:00:00 13.5 3 Norte 12 Oeste 0 -- -- 68
2018-01-03 03:00:00 13.3 3 Oeste 17 Este 0 -- -- 65
2018-01-03 02:00:00 14.1 5 Noroeste 14 Este 0 -- -- 63
2018-01-03 01:00:00 14.2 4 Oeste 9 Sudoeste 0 -- -- 63
2018-01-03 00:00:00 15.5 2 Nordeste 8 Noroeste 0 -- -- 57
2018-01-02 23:00:00 15.8 2 Norte 13 Oeste 0 -- -- 55
2018-01-02 22:00:00 16.1 8 Oeste 15 Sudoeste 0 -- -- 55
2018-01-02 21:00:00 16.7 3 Oeste 15 Noroeste 0 -- -- 49
2018-01-02 20:00:00 15.2 5 Oeste 14 Oeste 0 -- -- 49
2018-01-02 19:00:00 14.6 3 Sudoeste 9 Norte 0 -- -- 58
2018-01-02 18:00:00 15.5 4 Nordeste 13 Nordeste 0 -- -- 55
2018-01-02 17:00:00 16.5 5 Este 12 Este 0 -- -- 58
2018-01-02 16:00:00 17.2 6 Este 14 Este 0 -- -- 59
2018-01-02 15:00:00 17.5 8 Nordeste 17 Este 0 -- -- 58
2018-01-02 14:00:00 18.7 8 Este 19 Este 0 -- -- 40
2018-01-02 13:00:00 17.9 9 Este 17 Este 0 -- -- 55
2018-01-02 12:00:00 16.8 3 Sur 9 Sudoeste 0 -- -- 52
2018-01-02 11:00:00 15.8 4 Sudoeste 9 Oeste 0 -- -- 51
2018-01-02 10:00:00 12.6 2 Oeste 8 Nordeste 0 -- -- 55
2018-01-02 09:00:00 9.5 4 Norte 10 Norte 0 -- -- 59
2018-01-02 08:00:00 9 3 Noroeste 10 Noroeste 0 -- -- 65
2018-01-02 07:00:00 8.8 0 Calma 6 Sudoeste 0 -- -- 61
2018-01-02 06:00:00 9.5 4 Oeste 8 Noroeste 0 -- -- 63
2018-01-02 05:00:00 9.8 2 Oeste 9 Noroeste 0 -- -- 57
2018-01-02 04:00:00 9.6 3 Norte 7 Este 0 -- -- 54
2018-01-02 03:00:00 10.2 2 Este 6 Noroeste 0 -- -- 51
2018-01-02 02:00:00 11.4 3 Noroeste 9 Norte 0 -- -- 38
2018-01-02 01:00:00 12.1 4 Norte 12 Este 0 -- -- 33
2018-01-02 00:00:00 12.2 5 Nordeste 12 Noroeste 0 -- -- 45
2018-01-01 23:00:00 12.3 5 Noroeste 10 Oeste 0 -- -- 48
2018-01-01 22:00:00 12.4 4 Sur 10 Sur 0 -- -- 47
2018-01-01 21:00:00 12.8 3 Noroeste 17 Este 0 -- -- 39
2018-01-01 20:00:00 14.9 5 Noroeste 9 Oeste 0 -- -- 35
2018-01-01 19:00:00 14.5 3 Norte 9 Oeste 0 -- -- 42
2018-01-01 18:00:00 16.3 4 Oeste 13 Sudoeste 0 -- -- 47
2018-01-01 17:00:00 16.9 7 Sudoeste 15 Oeste 0 -- -- 51
2018-01-01 16:00:00 17.4 6 Sudoeste 11 Sudoeste 0 -- -- 52
2018-01-01 15:00:00 18.2 4 Sudoeste 8 Sudoeste 0 -- -- 41
2018-01-01 14:00:00 19 4 Sudoeste 6 Sudoeste 0 -- -- 34
2018-01-01 13:00:00 18.4 3 Sur 10 Sudeste 0 -- -- 40
2018-01-01 12:00:00 17.8 5 Este 13 Este 0 -- -- 53
2018-01-01 11:00:00 16.7 7 Este 17 Este 0 -- -- 52
2018-01-01 10:00:00 15.3 3 Sur 14 Oeste 0 -- -- 57
2018-01-01 09:00:00 13 8 Noroeste 11 Oeste 0 -- -- 56
2018-01-01 08:00:00 12.6 7 Noroeste 9 Norte 0 -- -- 61
2018-01-01 07:00:00 13.3 6 Norte 10 Noroeste 0 -- -- 59
2018-01-01 06:00:00 13.6 6 Noroeste 10 Nordeste 0 -- -- 58
2018-01-01 05:00:00 13.4 6 Nordeste 18 Nordeste 0 -- -- 50
2018-01-01 04:00:00 14 8 Nordeste 15 Nordeste 0 -- -- 37
2018-01-01 03:00:00 14.1 0 Calma 11 Oeste 0 -- -- 45
2018-01-01 02:00:00 15.5 5 Norte 17 Oeste 0 -- -- 46
2018-01-01 01:00:00 16.3 7 Oeste 19 Oeste 0 -- -- 51
2018-01-01 00:00:00 16.8 9 Oeste 45 Oeste 0 -- -- 57
2017-12-31 23:00:00 17 22 Oeste 37 Oeste 0 -- -- 61
2017-12-31 22:00:00 17.1 14 Oeste 28 Oeste 0 -- -- 60
2017-12-31 21:00:00 16.7 9 Sudoeste 25 Sudoeste 0 -- -- 66
2017-12-31 20:00:00 17 13 Sudoeste 25 Sudoeste 0 -- -- 64
2017-12-31 19:00:00 17.3 9 Sudoeste 30 Oeste 0 -- -- 59
2017-12-31 18:00:00 18 17 Oeste 41 Noroeste 0 -- -- 51
2017-12-31 17:00:00 19 15 Oeste 39 Oeste 0 -- -- 48
2017-12-31 16:00:00 19.4 14 Oeste 39 Oeste 0 -- -- 47
2017-12-31 15:00:00 18.8 16 Oeste 44 Oeste 0 -- -- 49
2017-12-31 14:00:00 18.6 18 Oeste 44 Oeste 0 -- -- 50
2017-12-31 13:00:00 18.5 16 Oeste 50 Oeste 0 -- -- 52
2017-12-31 12:00:00 17.8 21 Oeste 44 Oeste 0 -- -- 56
2017-12-31 11:00:00 16.8 19 Sudoeste 43 Oeste 0 -- -- 63
2017-12-31 10:00:00 16.4 16 Oeste 41 Oeste 0 -- -- 62
2017-12-31 09:00:00 15.8 23 Oeste 45 Sudoeste 0 -- -- 68
2017-12-31 08:00:00 15.8 19 Sudoeste 39 Oeste 0 -- -- 69
2017-12-31 07:00:00 15.2 17 Oeste 39 Sudoeste 0 -- -- 72
2017-12-31 06:00:00 14.5 15 Oeste 32 Oeste 0 -- -- 73
2017-12-31 05:00:00 14.5 19 Oeste 38 Oeste 0 -- -- 75
2017-12-31 04:00:00 11.1 3 Nordeste 6 Nordeste 0 -- -- 82
2017-12-31 03:00:00 11.7 3 Oeste 6 Oeste 0 -- -- 81
2017-12-31 02:00:00 11.9 2 Noroeste 8 Norte 0 -- -- 80
2017-12-31 01:00:00 11.9 3 Oeste 4 Oeste 0 -- -- 81